createdAt,value
2022-12-06T00:01:18.333Z,101052.28
2022-12-06T00:03:46.574Z,101042.41
2022-12-06T00:06:16.652Z,101046.63
2022-12-06T00:08:43.688Z,101056.09
2022-12-06T00:11:31.306Z,101045.25
2022-12-06T00:14:00.246Z,101043.53
2022-12-06T00:16:27.433Z,101044.03
2022-12-06T00:18:54.300Z,101040.81
2022-12-06T00:21:24.742Z,101034.97
2022-12-06T00:23:54.120Z,101038.19
2022-12-06T00:26:21.351Z,101036.81
2022-12-06T00:28:48.493Z,101045.75
2022-12-06T00:31:17.571Z,101038.31
2022-12-06T00:33:44.452Z,101039.81
2022-12-06T00:36:19.205Z,101042.63
2022-12-06T00:38:46.352Z,101039.41
2022-12-06T00:41:15.085Z,101045.13
2022-12-06T00:43:41.711Z,101046.66
2022-12-06T00:46:12.224Z,101047.84
2022-12-06T00:48:38.718Z,101047.72
2022-12-06T00:51:05.356Z,101046.63
2022-12-06T00:53:31.809Z,101049.06
2022-12-06T00:55:58.237Z,101053.66
2022-12-06T00:58:24.715Z,101053.88
2022-12-06T01:00:51.661Z,101049.38
2022-12-06T01:03:18.337Z,101055.88
2022-12-06T01:05:48.818Z,101050.38
2022-12-06T01:08:17.050Z,101050.84
2022-12-06T01:10:52.464Z,101047.84
2022-12-06T01:13:19.205Z,101054.38
2022-12-06T01:15:45.593Z,101050.97
2022-12-06T01:18:12.309Z,101055.41
2022-12-06T01:20:38.720Z,101051.06
2022-12-06T01:23:05.149Z,101048.34
2022-12-06T01:25:35.844Z,101053.88
2022-12-06T01:28:02.775Z,101050.06
2022-12-06T01:30:29.524Z,101046.94
2022-12-06T01:32:56.063Z,101043.31
2022-12-06T01:35:22.677Z,101039.38
2022-12-06T01:37:49.052Z,101038.13
2022-12-06T01:40:15.463Z,101041.50
2022-12-06T01:42:41.873Z,101041.00
2022-12-06T01:45:09.824Z,101037.78
2022-12-06T01:47:40.082Z,101041.41
2022-12-06T01:50:19.949Z,101032.53
2022-12-06T01:52:56.756Z,101031.03
2022-12-06T01:55:28.060Z,101023.50
2022-12-06T01:58:00.427Z,101025.03
2022-12-06T02:00:26.918Z,101023.13
2022-12-06T02:02:57.989Z,101022.94
2022-12-06T02:05:25.465Z,101020.41
2022-12-06T02:07:53.641Z,101032.53
2022-12-06T02:10:20.525Z,101016.88
2022-12-06T02:12:56.838Z,101017.69
2022-12-06T02:15:41.654Z,101017.31
2022-12-06T02:18:15.704Z,101018.78
2022-12-06T02:20:56.105Z,101018.69
2022-12-06T02:23:28.184Z,101018.69
2022-12-06T02:26:15.075Z,101017.28
2022-12-06T02:29:15.256Z,101017.44
2022-12-06T02:31:50.849Z,101016.25
2022-12-06T02:34:40.225Z,101021.09
2022-12-06T02:37:15.910Z,101021.19
2022-12-06T02:40:06.307Z,101020.47
2022-12-06T02:42:37.021Z,101015.44
2022-12-06T02:45:11.307Z,101016.03
2022-12-06T02:47:38.805Z,101008.94
2022-12-06T02:50:10.885Z,101007.50
2022-12-06T02:52:42.633Z,101007.22
2022-12-06T02:55:10.815Z,100998.91
2022-12-06T02:57:44.017Z,101006.44
2022-12-06T03:00:42.299Z,101002.38
2022-12-06T03:03:41.418Z,101006.72
2022-12-06T03:06:19.744Z,101003.81
2022-12-06T03:08:58.914Z,101001.25
2022-12-06T03:11:50.179Z,100996.66
2022-12-06T03:14:23.782Z,100997.13
2022-12-06T03:17:17.936Z,100992.25
2022-12-06T03:19:51.163Z,100990.13
2022-12-06T03:22:39.651Z,100991.72
2022-12-06T03:25:08.062Z,100985.91
2022-12-06T03:27:35.739Z,100986.72
2022-12-06T03:30:08.248Z,100986.91
2022-12-06T03:32:37.180Z,100983.28
2022-12-06T03:35:08.445Z,100985.72
2022-12-06T03:37:38.453Z,100985.53
2022-12-06T03:40:32.629Z,100984.22
2022-12-06T03:43:00.179Z,100982.50
2022-12-06T03:46:01.821Z,100976.09
2022-12-06T03:48:36.022Z,100984.19
2022-12-06T03:51:10.645Z,100974.38
2022-12-06T03:53:48.783Z,100977.13
2022-12-06T03:56:15.950Z,100974.69
2022-12-06T03:58:42.400Z,100970.06
2022-12-06T04:01:08.831Z,100970.16
2022-12-06T04:03:35.915Z,100981.47
2022-12-06T04:06:03.921Z,100974.03
2022-12-06T04:08:30.353Z,100969.81
2022-12-06T04:10:56.785Z,100975.38
2022-12-06T04:13:23.800Z,100967.19
2022-12-06T04:15:50.336Z,100966.97
2022-12-06T04:18:18.563Z,100969.44
2022-12-06T04:21:06.356Z,100969.00
2022-12-06T04:23:38.511Z,100961.78
2022-12-06T04:26:06.218Z,100958.97
2022-12-06T04:28:51.588Z,100956.75
2022-12-06T04:31:36.806Z,100963.97
2022-12-06T04:34:21.927Z,100955.72
2022-12-06T04:37:06.587Z,100947.94
2022-12-06T04:39:33.451Z,100948.44
2022-12-06T04:42:18.893Z,100952.97
2022-12-06T04:44:45.564Z,100946.25
2022-12-06T04:47:12.109Z,100952.06
2022-12-06T04:49:38.766Z,100944.41
2022-12-06T04:52:07.105Z,100946.50
2022-12-06T04:54:33.661Z,100944.78
2022-12-06T04:57:00.923Z,100939.66
2022-12-06T04:59:28.601Z,100943.63
2022-12-06T05:01:56.351Z,100934.97
2022-12-06T05:04:23.001Z,100932.19
2022-12-06T05:06:49.507Z,100933.69
2022-12-06T05:09:15.968Z,100944.63
2022-12-06T05:11:42.392Z,100942.34
2022-12-06T05:14:08.795Z,100934.47
2022-12-06T05:16:35.268Z,100931.81
2022-12-06T05:19:01.859Z,100935.13
2022-12-06T05:21:28.304Z,100935.19
2022-12-06T05:23:55.831Z,100931.91
2022-12-06T05:26:25.032Z,100919.84
2022-12-06T05:28:52.332Z,100937.69
2022-12-06T05:31:19.144Z,100923.34
2022-12-06T05:33:46.292Z,100934.19
2022-12-06T05:36:25.228Z,100928.06
2022-12-06T05:38:52.814Z,100930.03
2022-12-06T05:41:21.053Z,100928.66
2022-12-06T05:43:47.845Z,100930.91
2022-12-06T05:46:14.397Z,100932.66
2022-12-06T05:48:40.874Z,100924.72
2022-12-06T05:51:07.263Z,100922.47
2022-12-06T05:53:33.659Z,100926.47
2022-12-06T05:56:05.928Z,100918.22
2022-12-06T05:58:32.521Z,100918.91
2022-12-06T06:00:59.013Z,100918.38
2022-12-06T06:03:25.427Z,100919.41
2022-12-06T06:05:58.111Z,100922.59
2022-12-06T06:08:25.160Z,100919.81
2022-12-06T06:10:51.635Z,100924.13
2022-12-06T06:13:18.114Z,100918.22
2022-12-06T06:15:44.548Z,100925.38
2022-12-06T06:18:10.986Z,100919.63
2022-12-06T06:20:37.381Z,100919.81
2022-12-06T06:23:03.882Z,100927.53
2022-12-06T06:25:30.271Z,100928.44
2022-12-06T06:27:56.677Z,100921.31
2022-12-06T06:30:23.234Z,100926.72
2022-12-06T06:32:50.436Z,100924.84
2022-12-06T06:35:16.897Z,100936.34
2022-12-06T06:37:43.323Z,100933.31
2022-12-06T06:40:11.296Z,100933.47
2022-12-06T06:42:38.135Z,100940.28
2022-12-06T06:45:05.364Z,100933.25
2022-12-06T06:47:31.738Z,100942.66
2022-12-06T06:49:58.381Z,100941.25
2022-12-06T06:52:25.150Z,100932.44
2022-12-06T06:54:51.612Z,100939.16
2022-12-06T06:57:18.426Z,100941.25
2022-12-06T06:59:45.642Z,100943.03
2022-12-06T07:02:13.963Z,100942.22
2022-12-06T07:04:40.779Z,100940.19
2022-12-06T07:07:07.132Z,100938.66
2022-12-06T07:09:33.956Z,100944.91
2022-12-06T07:12:00.357Z,100952.69
2022-12-06T07:14:26.716Z,100948.09
2022-12-06T07:16:53.125Z,100943.78
2022-12-06T07:19:19.542Z,100947.16
2022-12-06T07:21:46.021Z,100947.25
2022-12-06T07:24:12.531Z,100942.81
2022-12-06T07:26:38.925Z,100943.03
2022-12-06T07:29:05.463Z,100946.50
2022-12-06T07:31:32.107Z,100944.00
2022-12-06T07:34:00.799Z,100952.00
2022-12-06T07:36:30.114Z,100953.56
2022-12-06T07:38:58.318Z,100958.75
2022-12-06T07:41:46.369Z,100962.25
2022-12-06T07:44:33.441Z,100968.03
2022-12-06T07:46:59.881Z,100963.41
2022-12-06T07:49:26.395Z,100959.22
2022-12-06T07:51:54.944Z,100957.31
2022-12-06T07:54:22.134Z,100959.38
2022-12-06T07:56:48.608Z,100951.53
2022-12-06T07:59:15.141Z,100957.63
2022-12-06T08:01:41.990Z,100949.91
2022-12-06T08:04:08.625Z,100958.75
2022-12-06T08:06:35.196Z,100955.59
2022-12-06T08:09:01.636Z,100955.16
2022-12-06T08:11:28.743Z,100959.66
2022-12-06T08:13:55.382Z,100959.53
2022-12-06T08:16:21.848Z,100964.78
2022-12-06T08:18:48.293Z,100961.56
2022-12-06T08:21:16.052Z,100954.00
2022-12-06T08:23:42.503Z,100956.63
2022-12-06T08:26:13.680Z,100953.94
2022-12-06T08:28:41.360Z,100964.16
2022-12-06T08:31:10.421Z,100961.53
2022-12-06T08:33:37.055Z,100957.88
2022-12-06T08:36:11.978Z,100960.88
2022-12-06T08:38:39.397Z,100953.19
2022-12-06T08:41:27.369Z,100959.84
2022-12-06T08:43:54.752Z,100962.44
2022-12-06T08:46:21.378Z,100960.59
2022-12-06T08:48:47.844Z,100957.09
2022-12-06T08:51:14.291Z,100953.06
2022-12-06T08:53:40.743Z,100953.44
2022-12-06T08:56:07.421Z,100956.34
2022-12-06T08:58:33.887Z,100951.69
2022-12-06T09:01:00.354Z,100947.88
2022-12-06T09:03:26.817Z,100947.44
2022-12-06T09:05:53.189Z,100957.09
2022-12-06T09:08:19.903Z,100957.63
2022-12-06T09:11:18.213Z,100954.09
2022-12-06T09:13:45.239Z,100953.13
2022-12-06T09:16:15.786Z,100960.22
2022-12-06T09:18:43.132Z,100958.22
2022-12-06T09:21:13.906Z,100951.00
2022-12-06T09:23:40.513Z,100960.25
2022-12-06T09:26:07.105Z,100950.63
2022-12-06T09:28:38.784Z,100949.69
2022-12-06T09:31:07.236Z,100952.66
2022-12-06T09:33:34.472Z,100951.53
2022-12-06T09:36:06.182Z,100946.97
2022-12-06T09:38:35.662Z,100951.72
2022-12-06T09:41:50.114Z,100948.00
2022-12-06T09:44:22.714Z,100945.47
2022-12-06T09:47:15.494Z,100947.50
2022-12-06T09:50:21.450Z,100942.75
2022-12-06T09:53:02.626Z,100948.41
2022-12-06T09:55:38.104Z,100945.69
2022-12-06T09:58:16.695Z,100938.38
2022-12-06T10:00:54.445Z,100937.31
2022-12-06T10:03:45.508Z,100937.09
2022-12-06T10:06:14.503Z,100934.75
2022-12-06T10:09:18.284Z,100930.03
2022-12-06T10:12:09.494Z,100926.63
2022-12-06T10:15:00.559Z,100930.56
2022-12-06T10:17:51.958Z,100918.53
2022-12-06T10:20:33.791Z,100924.06
2022-12-06T10:23:27.520Z,100918.66
2022-12-06T10:26:21.931Z,100916.59
2022-12-06T10:29:12.916Z,100916.63
2022-12-06T10:31:48.687Z,100915.41
2022-12-06T10:34:21.911Z,100923.34
2022-12-06T10:37:06.554Z,100924.97
2022-12-06T10:39:52.362Z,100924.97
2022-12-06T10:43:16.731Z,100911.13
2022-12-06T10:46:23.990Z,100917.66
2022-12-06T10:48:55.360Z,100913.84
2022-12-06T10:51:30.235Z,100911.44
2022-12-06T10:54:05.389Z,100905.13
2022-12-06T10:56:43.248Z,100903.13
2022-12-06T10:59:24.852Z,100900.22
2022-12-06T11:01:53.038Z,100890.97
2022-12-06T11:04:27.391Z,100893.28
2022-12-06T11:06:58.246Z,100895.19
2022-12-06T11:09:58.975Z,100902.41
2022-12-06T11:12:31.682Z,100890.56
2022-12-06T11:15:27.760Z,100897.59
2022-12-06T11:18:08.810Z,100889.47
2022-12-06T11:21:13.379Z,100888.34
2022-12-06T11:24:11.688Z,100883.66
2022-12-06T11:27:22.573Z,100886.06
2022-12-06T11:29:50.375Z,100888.03
2022-12-06T11:32:18.210Z,100886.34
2022-12-06T11:34:50.580Z,100879.00
2022-12-06T11:37:23.818Z,100886.84
2022-12-06T11:40:12.420Z,100882.94
2022-12-06T11:42:38.923Z,100882.84
2022-12-06T11:45:18.725Z,100874.81
2022-12-06T11:47:46.417Z,100871.22
2022-12-06T11:50:20.412Z,100868.88
2022-12-06T11:52:52.597Z,100863.47
2022-12-06T11:55:23.343Z,100858.94
2022-12-06T11:58:16.224Z,100858.34
2022-12-06T12:01:04.877Z,100862.44
2022-12-06T12:03:34.578Z,100862.75
2022-12-06T12:06:27.365Z,100856.59
2022-12-06T12:09:02.786Z,100854.31
2022-12-06T12:11:32.018Z,100853.91
2022-12-06T12:14:02.043Z,100851.91
2022-12-06T12:16:35.875Z,100854.81
2022-12-06T12:19:06.812Z,100845.97
2022-12-06T12:21:39.912Z,100848.66
2022-12-06T12:27:56.341Z,100842.75
2022-12-06T12:30:35.402Z,100839.81
2022-12-06T12:33:07.933Z,100836.41
2022-12-06T12:35:40.313Z,100842.34
2022-12-06T12:38:09.662Z,100842.34
2022-12-06T12:40:44.112Z,100839.06
2022-12-06T12:43:16.406Z,100840.25
2022-12-06T12:46:03.279Z,100835.69
2022-12-06T12:48:30.193Z,100845.34
2022-12-06T12:51:02.564Z,100828.88
2022-12-06T12:53:28.931Z,100826.78
2022-12-06T12:56:16.937Z,100822.47
2022-12-06T12:58:44.514Z,100825.84
2022-12-06T13:01:34.450Z,100820.22
2022-12-06T13:04:11.535Z,100817.44
2022-12-06T13:06:44.540Z,100823.25
2022-12-06T13:09:21.658Z,100821.56
2022-12-06T13:11:54.013Z,100819.25
2022-12-06T13:14:22.355Z,100823.66
2022-12-06T13:16:52.733Z,100812.00
2022-12-06T13:19:20.913Z,100816.34
2022-12-06T13:21:50.681Z,100814.13
2022-12-06T13:24:26.627Z,100822.41
2022-12-06T13:26:57.753Z,100811.38
2022-12-06T13:29:40.889Z,100812.41
2022-12-06T13:32:20.841Z,100816.28
2022-12-06T13:34:54.336Z,100809.28
2022-12-06T13:37:34.275Z,100813.09
2022-12-06T13:40:02.440Z,100809.28
2022-12-06T13:42:38.065Z,100807.97
2022-12-06T13:45:39.163Z,100815.97
2022-12-06T13:48:24.093Z,100810.56
2022-12-06T13:50:58.169Z,100816.69
2022-12-06T13:53:26.674Z,100813.97
2022-12-06T13:56:02.633Z,100820.88
2022-12-06T13:58:28.997Z,100819.94
2022-12-06T14:00:56.975Z,100815.50
2022-12-06T14:03:23.582Z,100810.31
2022-12-06T14:06:15.711Z,100809.97
2022-12-06T14:08:43.764Z,100818.16
2022-12-06T14:11:15.861Z,100819.59
2022-12-06T14:13:48.129Z,100809.97
2022-12-06T14:16:46.348Z,100816.75
2022-12-06T14:19:38.716Z,100814.38
2022-12-06T14:22:27.849Z,100811.13
2022-12-06T14:25:18.978Z,100806.31
2022-12-06T14:27:49.182Z,100805.22
2022-12-06T14:30:26.485Z,100805.41
2022-12-06T14:32:55.545Z,100812.06
2022-12-06T14:35:35.552Z,100805.72
2022-12-06T14:38:19.800Z,100794.66
2022-12-06T14:41:04.446Z,100801.88
2022-12-06T14:43:32.818Z,100801.09
2022-12-06T14:46:03.668Z,100796.66
2022-12-06T14:48:52.130Z,100790.59
2022-12-06T14:51:23.381Z,100794.13
2022-12-06T14:53:50.878Z,100790.59
2022-12-06T14:56:44.555Z,100799.97
2022-12-06T14:59:12.291Z,100795.41
2022-12-06T15:01:49.981Z,100793.81
2022-12-06T15:04:38.639Z,100794.19
2022-12-06T15:07:06.098Z,100789.88
2022-12-06T15:09:44.626Z,100791.16
2022-12-06T15:12:41.172Z,100791.06
2022-12-06T15:15:34.507Z,100792.66
2022-12-06T15:18:25.613Z,100782.81
2022-12-06T15:20:53.957Z,100783.50
2022-12-06T15:23:59.063Z,100784.13
2022-12-06T15:26:25.487Z,100779.88
2022-12-06T15:28:52.409Z,100785.47
2022-12-06T15:31:29.881Z,100789.00
2022-12-06T15:33:56.748Z,100789.13
2022-12-06T15:36:25.457Z,100788.63
2022-12-06T15:38:52.225Z,100797.63
2022-12-06T15:41:21.469Z,100789.94
2022-12-06T15:43:48.414Z,100784.94
2022-12-06T15:46:19.402Z,100788.94
2022-12-06T15:48:46.538Z,100797.13
2022-12-06T15:51:20.393Z,100799.47
2022-12-06T15:53:48.736Z,100796.59
2022-12-06T15:56:18.426Z,100798.00
2022-12-06T15:58:46.634Z,100801.84
2022-12-06T16:01:19.785Z,100804.44
2022-12-06T16:03:47.475Z,100804.75
2022-12-06T16:06:15.945Z,100804.91
2022-12-06T16:08:42.821Z,100801.53
2022-12-06T16:11:12.663Z,100806.72
2022-12-06T16:13:40.065Z,100808.63
2022-12-06T16:16:07.881Z,100810.78
2022-12-06T16:18:35.977Z,100802.94
2022-12-06T16:21:03.061Z,100809.97
2022-12-06T16:26:44.818Z,100802.56
2022-12-06T16:29:24.814Z,100810.09
2022-12-06T16:31:52.186Z,100800.78
2022-12-06T16:34:19.578Z,100795.97
2022-12-06T16:37:06.629Z,100803.38
2022-12-06T16:39:34.323Z,100802.25
2022-12-06T16:42:01.680Z,100801.59
2022-12-06T16:44:28.176Z,100807.56
2022-12-06T16:46:54.801Z,100812.03
2022-12-06T16:52:13.042Z,100804.53
2022-12-06T16:54:42.689Z,100808.69
2022-12-06T16:57:11.410Z,100809.97
2022-12-06T16:59:37.948Z,100804.16
2022-12-06T17:02:10.088Z,100802.06
2022-12-06T17:04:39.533Z,100800.53
2022-12-06T17:07:05.949Z,100805.97
2022-12-06T17:09:35.233Z,100803.72
2022-12-06T17:12:06.284Z,100803.72
2022-12-06T17:14:32.951Z,100805.84
2022-12-06T17:17:03.837Z,100806.81
2022-12-06T17:19:32.109Z,100803.56
2022-12-06T17:22:01.976Z,100808.69
2022-12-06T17:24:28.604Z,100810.09
2022-12-06T17:29:23.684Z,100810.59
2022-12-06T17:31:51.121Z,100806.88
2022-12-06T17:34:18.559Z,100818.00
2022-12-06T17:36:45.273Z,100814.97
2022-12-06T17:39:15.091Z,100816.25
2022-12-06T17:42:00.027Z,100812.63
2022-12-06T17:44:26.711Z,100812.44
2022-12-06T17:46:53.729Z,100821.41
2022-12-06T17:49:22.708Z,100818.38
2022-12-06T17:51:49.678Z,100809.47
2022-12-06T17:54:17.089Z,100806.75
2022-12-06T17:56:48.850Z,100812.94
2022-12-06T17:59:18.527Z,100808.88
2022-12-06T18:04:32.554Z,100800.59
2022-12-06T18:06:59.136Z,100807.53
2022-12-06T18:09:25.694Z,100806.94
2022-12-06T18:11:52.192Z,100803.44
2022-12-06T18:14:18.970Z,100804.41
2022-12-06T18:16:46.029Z,100804.28
2022-12-06T18:19:15.521Z,100803.03
2022-12-06T18:21:42.588Z,100807.00
2022-12-06T18:24:33.397Z,100802.69
2022-12-06T18:26:58.509Z,100798.47
2022-12-06T18:29:25.070Z,100800.41
2022-12-06T18:31:52.254Z,100791.63
2022-12-06T18:34:19.832Z,100798.28
2022-12-06T18:36:47.226Z,100792.13
2022-12-06T18:39:16.664Z,100801.19
2022-12-06T18:41:44.447Z,100798.91
2022-12-06T18:44:12.159Z,100804.09
2022-12-06T18:46:39.040Z,100799.28
2022-12-06T18:49:06.542Z,100800.75
2022-12-06T18:51:35.276Z,100790.94
2022-12-06T18:54:04.397Z,100788.63
2022-12-06T18:56:32.964Z,100793.53
2022-12-06T18:59:01.342Z,100782.25
2022-12-06T19:01:30.586Z,100785.13
2022-12-06T19:04:03.231Z,100791.97
2022-12-06T19:06:32.661Z,100786.53
2022-12-06T19:09:03.915Z,100780.66
2022-12-06T19:11:30.484Z,100786.53
2022-12-06T19:13:59.226Z,100784.44
2022-12-06T19:16:27.613Z,100774.63
2022-12-06T19:18:55.898Z,100784.78
2022-12-06T19:21:23.404Z,100780.59
2022-12-06T19:23:52.812Z,100777.06
2022-12-06T19:26:19.813Z,100772.22
2022-12-06T19:28:46.289Z,100779.47
2022-12-06T19:31:14.012Z,100778.47
2022-12-06T19:33:48.788Z,100781.00
2022-12-06T19:36:29.951Z,100779.91
2022-12-06T19:39:02.645Z,100778.19
2022-12-06T19:41:29.883Z,100775.06
2022-12-06T19:44:15.368Z,100766.34
2022-12-06T19:46:43.758Z,100768.44
2022-12-06T19:49:11.649Z,100770.22
2022-12-06T19:51:40.682Z,100773.28
2022-12-06T19:54:07.697Z,100777.97
2022-12-06T19:56:35.113Z,100762.09
2022-12-06T19:59:11.089Z,100773.78
2022-12-06T20:01:39.977Z,100772.69
2022-12-06T20:04:06.813Z,100771.19
2022-12-06T20:06:33.584Z,100769.91
2022-12-06T20:09:00.519Z,100769.47
2022-12-06T20:11:46.919Z,100765.28
2022-12-06T20:14:17.019Z,100769.41
2022-12-06T20:16:44.755Z,100772.44
2022-12-06T20:19:12.924Z,100768.59
2022-12-06T20:21:39.527Z,100759.59
2022-12-06T20:24:06.693Z,100759.06
2022-12-06T20:26:33.930Z,100750.41
2022-12-06T20:29:00.506Z,100749.41
2022-12-06T20:31:29.291Z,100753.44
2022-12-06T20:34:01.037Z,100744.78
2022-12-06T20:36:28.364Z,100747.78
2022-12-06T20:38:56.266Z,100736.16
2022-12-06T20:41:25.130Z,100740.38
2022-12-06T20:43:52.707Z,100732.44
2022-12-06T20:46:25.593Z,100730.91
2022-12-06T20:48:53.805Z,100734.44
2022-12-06T20:51:26.394Z,100728.16
2022-12-06T20:53:54.863Z,100732.72
2022-12-06T20:56:22.498Z,100730.94
2022-12-06T20:58:52.158Z,100733.19
2022-12-06T21:01:21.999Z,100730.47
2022-12-06T21:03:50.079Z,100735.56
2022-12-06T21:06:18.042Z,100739.41
2022-12-06T21:08:45.733Z,100737.50
2022-12-06T21:11:28.001Z,100725.53
2022-12-06T21:13:56.944Z,100734.13
2022-12-06T21:16:28.964Z,100734.22
2022-12-06T21:19:00.933Z,100735.84
2022-12-06T21:21:30.018Z,100735.03
2022-12-06T21:24:00.969Z,100735.16
2022-12-06T21:26:28.668Z,100733.97
2022-12-06T21:28:55.283Z,100739.94
2022-12-06T21:31:27.545Z,100737.25
2022-12-06T21:33:54.631Z,100733.91
2022-12-06T21:36:21.113Z,100738.88
2022-12-06T21:38:47.632Z,100736.75
2022-12-06T21:41:14.396Z,100735.03
2022-12-06T21:43:40.968Z,100733.72
2022-12-06T21:46:13.284Z,100729.56
2022-12-06T21:48:40.129Z,100731.63
2022-12-06T21:51:11.972Z,100729.22
2022-12-06T21:53:38.762Z,100731.56
2022-12-06T21:56:12.069Z,100733.34
2022-12-06T21:58:38.654Z,100738.00
2022-12-06T22:01:10.735Z,100738.75
2022-12-06T22:03:37.367Z,100740.66
2022-12-06T22:06:10.005Z,100738.00
2022-12-06T22:08:37.505Z,100739.53
2022-12-06T22:11:12.354Z,100747.66
2022-12-06T22:13:38.851Z,100744.16
2022-12-06T22:16:07.893Z,100748.03
2022-12-06T22:18:41.006Z,100736.78
2022-12-06T22:21:14.787Z,100745.66
2022-12-06T22:23:41.285Z,100737.22
2022-12-06T22:26:09.763Z,100748.84
2022-12-06T22:28:36.479Z,100744.78
2022-12-06T22:31:16.287Z,100744.91
2022-12-06T22:33:43.127Z,100738.31
2022-12-06T22:36:10.406Z,100739.31
2022-12-06T22:38:37.142Z,100735.06
2022-12-06T22:41:03.902Z,100742.88
2022-12-06T22:43:30.959Z,100747.69
2022-12-06T22:46:04.596Z,100738.75
2022-12-06T22:48:31.080Z,100742.50
2022-12-06T22:51:08.209Z,100733.50
2022-12-06T22:53:35.064Z,100731.16
2022-12-06T22:56:01.471Z,100726.91
2022-12-06T22:58:27.882Z,100726.91
2022-12-06T23:00:54.296Z,100717.13
2022-12-06T23:03:20.837Z,100727.69
2022-12-06T23:05:47.371Z,100712.06
2022-12-06T23:08:13.903Z,100719.16
2022-12-06T23:10:40.365Z,100713.53
2022-12-06T23:13:06.833Z,100714.09
2022-12-06T23:15:33.318Z,100714.41
2022-12-06T23:17:59.814Z,100718.97
2022-12-06T23:20:26.272Z,100717.78
2022-12-06T23:22:52.797Z,100714.16
2022-12-06T23:25:19.242Z,100708.97
2022-12-06T23:27:45.672Z,100713.53
2022-12-06T23:30:12.258Z,100709.53
2022-12-06T23:32:38.744Z,100710.59
2022-12-06T23:35:05.548Z,100705.06
2022-12-06T23:37:32.266Z,100708.19
2022-12-06T23:39:58.809Z,100700.38
2022-12-06T23:42:25.470Z,100700.06
2022-12-06T23:44:52.037Z,100699.81
2022-12-06T23:47:18.429Z,100701.59
2022-12-06T23:49:44.938Z,100704.59
2022-12-06T23:52:11.412Z,100712.19
2022-12-06T23:54:37.849Z,100700.47
2022-12-06T23:57:04.292Z,100697.34
2022-12-06T23:59:30.764Z,100685.38
